New Raymer, CO (80742)

4:54 AM MDT on August 31, 2015 (GMT -0600)
Fort Morgan | | Change Station
CLOSE
Current Station
Airport
Location: Fort Morgan,
Elevation: 4570 ft
Nearby Weather Stations

Elev 4570 ft 40.33 °N, 103.80 °W | Updated 39 minutes ago

Clear
Clear
64 °F
Feels Like 64 °F
N
6
Wind Variable Wind from North

Today
High -- | Low -- °F
--% Chance of Precip.
Yesterday
High -- | Low -- °F
Precip. -- in
6:21 AM 7:29 PM
Waning Gibbous, 96% visible
Pressure 29.98 in
Visibility 10.0 miles
Clouds Clear
Dew Point 49 °F
Humidity 58%
Rainfall 0.00 in
Snow Depth Not available.
UV 0 out of 12
Pollen 10.50 out of 12
Air Quality Not available.
Flu Activity Not available.
METAR KFMM 311015Z AUTO 35005KT 10SM CLR 18/10 A2998 RMK AO2 T01790096
Pressure 29.98 in
Visibility 10.0 miles
Clouds Clear
Dew Point 49 °F
Humidity 58%
Rainfall 0.00 in
Snow Depth Not available.
UV 0 out of 12
Pollen 10.50 out of 12
Air Quality Not available.
Flu Activity Not available.
METAR KFMM 311015Z AUTO 35005KT 10SM CLR 18/10 A2998 RMK AO2 T01790096

10-Day Weather Forecast

×

Almanac

Astronomy

Aug. 31, 2015 Rise Set
Actual Time
Civil Twilight
Nautical Twilight
Astronomical Twilight
Moon
Length of Visible Light
Length of Day
Tomorrow will be .
, % of the Moon is Illuminated

Today's Extremes

State Highs State Lows

Community

WunderPhotos

Upload Photos

1,851,227 photos uploaded!

WunderBlogs® & News

Nearby

Air Quality

  Air Quality AQ Index Pollutant
Not available.

Snow Depth

Station Depth Elevation

Earthquake Activity

City Distance Mag. Time & Date
Minimum magnitude displayed is 2.5.

Coastal Water Temperatures

Place Temperature

Stations

Nearby Weather Stations

Station Location Temp. Windchill Dew Point Humidity Wind Precip. Elev Updated Type